Aktualne dane pomiarowe

Uwaga, wersja testowa! Automatyczne pobieranie danych za pomocą narzędzi lub skryptów to umożliwiających jest zabronione.

Dane meteo z obszaru Polski uzyskane na podstawie depesz SYNOP pobieranych co godzinę z NWS. Najedź myszką na symbol przedstawiony w tabeli, aby uzyskać informacje co do jego znaczenia. Prosimy pamiętać, że to testowa wersja strony, która jeszcze nie jest ukończona. Stworzono również jest krótki FAQ dotyczący korzystania z tej podstrony Anomalie temperatury w chwili obecnej odniesione są do okresu referencyjnego 1951-2016. Okres ten będzie później zmieniony na 1981-2010. Kliknij ikonę aby pobrać plik CSV. Kliknij ikonę aby wygenerować mapę synoptyczną dla danego terminu.

Wybierz Datę:    

        

Włodawa (12497)

Dane terminowe dla wybranej stacji. Kliknij datę, aby otrzymać dane z tego terminu dla wszystkich stacji.

TemperaturaZachmurzenieWiatrCiśnienieOpadyPogoda
 Data t td wb tx tn tg rh  Nt Nl Cl Cm Ch ws wd g1 g2 wx mslp ppp ch 24h 12h t ww ww w1 w2  
2019-07-04 23:00:00 10.1 6.1 7.7--- 7620.0wx-wx3wx---1016.8 995.2 -1.1---------
2019-07-04 22:00:00 9.6 6.7 7.8--- 8220.0wx-wx2wx--21017.4 995.7 -0.6---------
2019-07-04 21:00:00 10.6 6.3 8.0--- 7520.0wx-wx2wx--21017.7 996.1 -0.2---------
2019-07-04 20:00:00 11.9 6.4 8.6--- 6920.0wx-wx2wx--21017.8 996.3 -0.1---------
2019-07-04 19:00:00 15.8 4.2 9.6--- 4620.0wxwxwxwx2wx--21017.5 996.3 -0.3---------
2019-07-04 18:00:00 18.2 4.4 10.9 21.5 14.3- 4020.0wxwxwxwx2wx-1221017.3 996.3 -0.7- 0.012------
2019-07-04 17:00:00 20.2 3.8 11.6--- 3420.0wxwxwxwx4wx--41017.3 996.4 -0.9---------
2019-07-04 16:00:00 21.1 3.8 12.0--- 3220.0wxwxwxwx5wx12--1017.4 996.6 -1.3---------
2019-07-04 15:00:00 21.1 3.3 11.8--- 3120.0wxwxwxwx6wx-1261017.8 997.0 -1.2---------
2019-07-04 14:00:00 20.7 3.4 11.7--- 3220.0wxwxwxwx6wx-1061018.2 997.3 -1.1---------
2019-07-04 13:00:00 20.3 2.6 11.2--- 3120.0wxwxwxwx7wx121271018.8 997.9 -0.9---------
2019-07-04 12:00:00 20.2 4.2 11.7--- 3520.0wxwxwxwx5wx-1251019.1 998.2 -0.4- 0.06------
2019-07-04 11:00:00 19.8 3.0 11.1--- 3320.0wxwxwxwx6wx121261019.4 998.4 -0.6---------
2019-07-04 10:00:00 18.4 4.2 10.9--- 3920.0wxwxwxwx6wx-1161019.9 998.8 -0.5---------
2019-07-04 09:00:00 19.2 3.8 11.1--- 3620.0wxwxwxwx4wx-1041019.6 998.6 -0.9---------
2019-07-04 08:00:00 18.3 4.5 11.0--- 4020.0wxwxwxwx6wx-1061020.1 999.0 -0.5---------
2019-07-04 07:00:00 16.3 5.3 10.3--- 4820.0wxwxwxwx5wx---1020.5 999.3 0.0---------
2019-07-04 06:00:00 14.5 5.8 9.6 17.0 8.5 7 5620.0wxwxwxwx4wx--41020.9 999.5 0.5- 0.012----- 12.6
2019-07-04 05:00:00 13.4 6.7 9.5--- 6420.0wxwxwxwx4wx--41021.0 999.5 0.8---------
2019-07-04 04:00:00 12.1 6.6 8.8--- 6920.0wxwxwxwx3wx--31020.9 999.3 1.0---------
2019-07-04 03:00:00 10.9 5.8 7.9--- 7120.0wxwxwx3wx--31020.6 999.0 0.6---------
2019-07-04 02:00:00 10.9 5.4 7.7--- 6920.0wxwxwx3wx--31020.3 998.7 0.3---------
2019-07-04 01:00:00 8.7 4.9 6.4--- 7720.0wxwxwx3wx--31020.1 998.3 0.1---------
2019-07-04 00:00:00 10.1 4.9 7.1--- 7020.0wxwxwx3wx--31020.1 998.4 0.5- 0.06------
2019-07-03 23:00:00 10.7 4.4 7.1--- 6520.0wxwxwx3wx--31020.0 998.4 0.7---------
2019-07-03 22:00:00 11.0 4.7 7.4--- 6520.0wxwxwx3wx--31019.8 998.2 0.7---------
2019-07-03 21:00:00 11.3 4.5 7.5--- 6320.0wxwxwx3wx--31019.5 997.9 0.8---------
2019-07-03 20:00:00 11.8 5.2 8.0--- 6420.0wxwxwx3wx--31019.2 997.7 0.8---------
2019-07-03 19:00:00 14.1 4.9 9.0--- 5420.0wxwxwx2wx--21018.9 997.5 0.8---------
2019-07-03 18:00:00 17.0 3.3 9.9 21.1 15.8- 4020.0wxwxwx5wx-1251018.2 997.1 0.3- 0.012------
2019-07-03 17:00:00 19.0 3.2 10.8--- 3520.0wxwxwx5wx--51017.9 996.9 0.2---------
2019-07-03 16:00:00 19.5 3.6 11.2--- 3520.0wxwxwx5wx-1151017.6 996.7 0.1---------
2019-07-03 15:00:00 20.1 3.3 11.4--- 3320.0wxwxwx5wx-1251017.7 996.8 0.2---------
2019-07-03 14:00:00 19.6 2.4 10.8--- 3220.0wxwxwx6wx111161017.6 996.7 0.2---------
2019-07-03 13:00:00 20.6 4.6 12.1--- 3520.0wxwxwx6wx-1261017.5 996.6 0.0---------
2019-07-03 12:00:00 20.1 3.7 11.5--- 3420.0wxwxwx7wx12--1017.5 996.6 0.1---------
2019-07-03 11:00:00 20.1 3.7 11.5--- 3420.0wxwxwx8wx-1381017.4 996.5 0.1---------
2019-07-03 10:00:00 19.8 4.7 11.7--- 3720.0wxwxwx7wx131371017.5 996.6 0.2---------
2019-07-03 09:00:00 18.8 6.3 11.9--- 4420.0wxwxwx7wx---1017.5 996.5 -0.1---------
2019-07-03 08:00:00 18.7 5.9 11.7--- 4320.0wxwxwx7wx-1371017.4 996.4 -0.1---------
2019-07-03 07:00:00 17.2 6.1 11.1--- 4820.0wxwxwxwx6wx-1161017.5 996.4 0.1---------
2019-07-03 06:00:00 15.8 7.8 11.1 21.6 12.2 11 5920.0wxwxwxwx5wx--51017.8 996.6 0.6- 0.012----- 10.3
2019-07-03 05:00:00 14.7 8.4 10.9--- 6620.0wxwxwxwx4wx--41017.8 996.5 1.0---------
2019-07-03 04:00:00 13.7 8.5 10.5--- 7120.0wx-wx4wx--41017.7 996.3 1.2---------
2019-07-03 03:00:00 12.3 8.9 10.1--- 8020.0wx-wx2wx--21017.5 996.0 1.0---------
2019-07-03 02:00:00 12.8 8.9 10.3--- 7720.0wx-wxwx3wx--31016.9 995.5 0.7---------
2019-07-03 01:00:00 13.1 9.2 10.6--- 7720.0wxwxwxwx3wx--31016.5 995.1 0.5---------
2019-07-03 00:00:00 13.5 8.3 10.3--- 7120.0wx-3wx--31016.4 995.0 0.8- 0.06------
1.9 ms

 

Print Friendly, PDF & Email